sensor_id;sensor_type;location;lat;lon;timestamp;P1;durP1;ratioP1;P2;durP2;ratioP2
16228;SDS011;8222;51.462;12.630;2023-06-10T00:01:58;4.43;;;3.80;;
16228;SDS011;8222;51.462;12.630;2023-06-10T00:04:26;5.13;;;4.20;;
16228;SDS011;8222;51.462;12.630;2023-06-10T00:06:55;5.00;;;4.20;;
16228;SDS011;8222;51.462;12.630;2023-06-10T00:09:24;5.82;;;3.88;;
16228;SDS011;8222;51.462;12.630;2023-06-10T00:11:54;4.80;;;4.40;;
16228;SDS011;8222;51.462;12.630;2023-06-10T00:14:19;4.50;;;3.93;;
16228;SDS011;8222;51.462;12.630;2023-06-10T00:16:48;4.40;;;3.95;;
16228;SDS011;8222;51.462;12.630;2023-06-10T00:19:17;5.37;;;4.00;;
16228;SDS011;8222;51.462;12.630;2023-06-10T00:21:50;7.77;;;3.50;;
16228;SDS011;8222;51.462;12.630;2023-06-10T00:24:17;5.50;;;4.10;;
16228;SDS011;8222;51.462;12.630;2023-06-10T00:26:43;4.50;;;4.07;;
16228;SDS011;8222;51.462;12.630;2023-06-10T00:29:11;4.77;;;4.37;;
16228;SDS011;8222;51.462;12.630;2023-06-10T00:31:39;5.20;;;3.93;;
16228;SDS011;8222;51.462;12.630;2023-06-10T00:34:11;7.25;;;4.22;;
16228;SDS011;8222;51.462;12.630;2023-06-10T00:36:37;4.20;;;3.90;;
16228;SDS011;8222;51.462;12.630;2023-06-10T00:39:06;4.47;;;4.03;;
16228;SDS011;8222;51.462;12.630;2023-06-10T00:41:37;5.50;;;4.15;;
16228;SDS011;8222;51.462;12.630;2023-06-10T00:44:03;4.27;;;3.73;;
16228;SDS011;8222;51.462;12.630;2023-06-10T00:46:29;5.03;;;4.60;;
16228;SDS011;8222;51.462;12.630;2023-06-10T00:48:58;8.00;;;4.22;;
16228;SDS011;8222;51.462;12.630;2023-06-10T00:51:25;4.43;;;4.03;;
16228;SDS011;8222;51.462;12.630;2023-06-10T00:53:51;6.47;;;4.30;;
16228;SDS011;8222;51.462;12.630;2023-06-10T00:56:20;7.03;;;4.35;;
16228;SDS011;8222;51.462;12.630;2023-06-10T00:58:49;4.77;;;3.70;;
16228;SDS011;8222;51.462;12.630;2023-06-10T01:03:52;4.40;;;4.00;;
16228;SDS011;8222;51.462;12.630;2023-06-10T01:12:09;4.63;;;4.10;;
16228;SDS011;8222;51.462;12.630;2023-06-10T01:14:45;5.43;;;4.90;;
16228;SDS011;8222;51.462;12.630;2023-06-10T01:17:13;5.50;;;4.10;;
16228;SDS011;8222;51.462;12.630;2023-06-10T01:19:41;5.78;;;4.68;;
16228;SDS011;8222;51.462;12.630;2023-06-10T01:22:08;6.70;;;4.88;;
16228;SDS011;8222;51.462;12.630;2023-06-10T01:24:36;6.07;;;4.70;;
16228;SDS011;8222;51.462;12.630;2023-06-10T01:27:05;6.03;;;3.80;;
16228;SDS011;8222;51.462;12.630;2023-06-10T01:29:45;5.03;;;4.60;;
16228;SDS011;8222;51.462;12.630;2023-06-10T01:32:21;5.50;;;5.00;;
16228;SDS011;8222;51.462;12.630;2023-06-10T01:34:56;8.40;;;4.93;;
16228;SDS011;8222;51.462;12.630;2023-06-10T01:37:27;4.67;;;3.93;;
16228;SDS011;8222;51.462;12.630;2023-06-10T01:39:57;5.97;;;4.67;;
16228;SDS011;8222;51.462;12.630;2023-06-10T01:42:30;4.83;;;4.43;;
16228;SDS011;8222;51.462;12.630;2023-06-10T01:44:57;7.72;;;5.07;;
16228;SDS011;8222;51.462;12.630;2023-06-10T01:47:25;5.37;;;4.20;;
16228;SDS011;8222;51.462;12.630;2023-06-10T01:49:51;5.63;;;5.03;;
16228;SDS011;8222;51.462;12.630;2023-06-10T01:52:19;5.10;;;4.60;;
16228;SDS011;8222;51.462;12.630;2023-06-10T01:54:47;5.37;;;4.53;;
16228;SDS011;8222;51.462;12.630;2023-06-10T01:57:15;6.70;;;5.20;;
16228;SDS011;8222;51.462;12.630;2023-06-10T01:59:46;7.53;;;5.63;;
16228;SDS011;8222;51.462;12.630;2023-06-10T02:02:14;6.53;;;5.63;;
16228;SDS011;8222;51.462;12.630;2023-06-10T02:04:43;6.60;;;5.60;;
16228;SDS011;8222;51.462;12.630;2023-06-10T02:07:08;9.20;;;5.60;;
16228;SDS011;8222;51.462;12.630;2023-06-10T02:09:34;6.47;;;5.60;;
16228;SDS011;8222;51.462;12.630;2023-06-10T02:12:01;5.50;;;5.00;;
16228;SDS011;8222;51.462;12.630;2023-06-10T02:14:32;6.13;;;5.63;;
16228;SDS011;8222;51.462;12.630;2023-06-10T02:16:58;6.47;;;5.83;;
16228;SDS011;8222;51.462;12.630;2023-06-10T02:19:24;5.43;;;4.97;;
16228;SDS011;8222;51.462;12.630;2023-06-10T02:21:52;6.05;;;5.45;;
16228;SDS011;8222;51.462;12.630;2023-06-10T02:24:18;6.50;;;5.77;;
16228;SDS011;8222;51.462;12.630;2023-06-10T02:26:44;8.77;;;5.97;;
16228;SDS011;8222;51.462;12.630;2023-06-10T02:29:10;6.30;;;5.70;;
16228;SDS011;8222;51.462;12.630;2023-06-10T02:31:36;7.03;;;6.33;;
16228;SDS011;8222;51.462;12.630;2023-06-10T02:34:07;9.60;;;6.60;;
16228;SDS011;8222;51.462;12.630;2023-06-10T02:36:32;7.20;;;6.50;;
16228;SDS011;8222;51.462;12.630;2023-06-10T02:39:01;7.07;;;6.07;;
16228;SDS011;8222;51.462;12.630;2023-06-10T02:41:28;6.33;;;5.73;;
16228;SDS011;8222;51.462;12.630;2023-06-10T02:43:58;6.80;;;6.07;;
16228;SDS011;8222;51.462;12.630;2023-06-10T02:46:23;6.87;;;6.10;;
16228;SDS011;8222;51.462;12.630;2023-06-10T02:48:53;7.50;;;6.80;;
16228;SDS011;8222;51.462;12.630;2023-06-10T02:51:19;7.10;;;6.40;;
16228;SDS011;8222;51.462;12.630;2023-06-10T02:53:46;7.40;;;6.00;;
16228;SDS011;8222;51.462;12.630;2023-06-10T02:56:15;7.87;;;6.43;;
16228;SDS011;8222;51.462;12.630;2023-06-10T02:58:41;7.95;;;6.80;;
16228;SDS011;8222;51.462;12.630;2023-06-10T03:01:09;6.85;;;6.25;;
16228;SDS011;8222;51.462;12.630;2023-06-10T03:03:38;6.60;;;5.93;;
16228;SDS011;8222;51.462;12.630;2023-06-10T03:06:10;7.38;;;6.45;;
16228;SDS011;8222;51.462;12.630;2023-06-10T03:08:36;8.82;;;7.30;;
16228;SDS011;8222;51.462;12.630;2023-06-10T03:11:02;6.33;;;5.73;;
16228;SDS011;8222;51.462;12.630;2023-06-10T03:13:30;8.60;;;6.40;;
16228;SDS011;8222;51.462;12.630;2023-06-10T03:15:57;7.55;;;6.78;;
16228;SDS011;8222;51.462;12.630;2023-06-10T03:18:25;7.30;;;6.60;;
16228;SDS011;8222;51.462;12.630;2023-06-10T03:20:52;6.80;;;6.10;;
16228;SDS011;8222;51.462;12.630;2023-06-10T03:23:20;8.23;;;7.03;;
16228;SDS011;8222;51.462;12.630;2023-06-10T03:25:46;12.47;;;7.33;;
16228;SDS011;8222;51.462;12.630;2023-06-10T03:28:12;7.43;;;6.77;;
16228;SDS011;8222;51.462;12.630;2023-06-10T03:30:40;7.53;;;6.72;;
16228;SDS011;8222;51.462;12.630;2023-06-10T03:33:08;7.03;;;6.33;;
16228;SDS011;8222;51.462;12.630;2023-06-10T03:35:36;9.63;;;6.60;;
16228;SDS011;8222;51.462;12.630;2023-06-10T03:38:02;8.02;;;7.22;;
16228;SDS011;8222;51.462;12.630;2023-06-10T03:40:32;8.23;;;7.38;;
16228;SDS011;8222;51.462;12.630;2023-06-10T03:43:00;8.55;;;7.72;;
16228;SDS011;8222;51.462;12.630;2023-06-10T03:45:28;9.77;;;7.13;;
16228;SDS011;8222;51.462;12.630;2023-06-10T03:47:54;7.30;;;6.27;;
16228;SDS011;8222;51.462;12.630;2023-06-10T03:50:25;8.73;;;6.20;;
16228;SDS011;8222;51.462;12.630;2023-06-10T03:52:55;9.25;;;8.35;;
16228;SDS011;8222;51.462;12.630;2023-06-10T03:55:21;10.23;;;8.15;;
16228;SDS011;8222;51.462;12.630;2023-06-10T03:57:47;9.18;;;8.20;;
16228;SDS011;8222;51.462;12.630;2023-06-10T04:00:15;8.85;;;8.00;;
16228;SDS011;8222;51.462;12.630;2023-06-10T04:02:43;10.10;;;7.20;;
16228;SDS011;8222;51.462;12.630;2023-06-10T04:05:16;8.73;;;7.85;;
16228;SDS011;8222;51.462;12.630;2023-06-10T04:07:43;10.47;;;8.97;;
16228;SDS011;8222;51.462;12.630;2023-06-10T04:10:09;8.00;;;7.30;;
16228;SDS011;8222;51.462;12.630;2023-06-10T04:12:41;8.93;;;7.88;;
16228;SDS011;8222;51.462;12.630;2023-06-10T04:15:09;8.43;;;7.60;;
16228;SDS011;8222;51.462;12.630;2023-06-10T04:17:38;11.82;;;8.88;;
16228;SDS011;8222;51.462;12.630;2023-06-10T04:20:04;8.83;;;7.93;;
16228;SDS011;8222;51.462;12.630;2023-06-10T04:22:32;10.55;;;8.77;;
16228;SDS011;8222;51.462;12.630;2023-06-10T04:24:58;10.15;;;8.18;;
16228;SDS011;8222;51.462;12.630;2023-06-10T04:27:29;8.80;;;7.90;;
16228;SDS011;8222;51.462;12.630;2023-06-10T04:29:57;9.05;;;8.15;;
16228;SDS011;8222;51.462;12.630;2023-06-10T04:32:28;9.30;;;7.60;;
16228;SDS011;8222;51.462;12.630;2023-06-10T04:34:53;9.23;;;8.27;;
16228;SDS011;8222;51.462;12.630;2023-06-10T04:37:19;8.90;;;8.02;;
16228;SDS011;8222;51.462;12.630;2023-06-10T04:39:45;8.50;;;7.70;;
16228;SDS011;8222;51.462;12.630;2023-06-10T04:42:13;10.50;;;8.17;;
16228;SDS011;8222;51.462;12.630;2023-06-10T04:44:38;9.87;;;7.90;;
16228;SDS011;8222;51.462;12.630;2023-06-10T04:47:05;9.00;;;8.25;;
16228;SDS011;8222;51.462;12.630;2023-06-10T04:49:34;8.87;;;7.93;;
16228;SDS011;8222;51.462;12.630;2023-06-10T04:52:00;8.23;;;7.30;;
16228;SDS011;8222;51.462;12.630;2023-06-10T04:54:28;8.80;;;7.97;;
16228;SDS011;8222;51.462;12.630;2023-06-10T04:56:54;7.90;;;7.17;;
16228;SDS011;8222;51.462;12.630;2023-06-10T04:59:22;9.27;;;7.32;;
16228;SDS011;8222;51.462;12.630;2023-06-10T05:01:47;8.88;;;7.57;;
16228;SDS011;8222;51.462;12.630;2023-06-10T05:04:13;8.37;;;7.53;;
16228;SDS011;8222;51.462;12.630;2023-06-10T05:06:41;8.93;;;7.50;;
16228;SDS011;8222;51.462;12.630;2023-06-10T05:09:11;7.80;;;7.10;;
16228;SDS011;8222;51.462;12.630;2023-06-10T05:11:37;7.17;;;6.57;;
16228;SDS011;8222;51.462;12.630;2023-06-10T05:14:03;10.02;;;7.60;;
16228;SDS011;8222;51.462;12.630;2023-06-10T05:16:29;8.97;;;8.00;;
16228;SDS011;8222;51.462;12.630;2023-06-10T05:18:54;13.33;;;7.13;;
16228;SDS011;8222;51.462;12.630;2023-06-10T05:21:20;8.43;;;7.10;;
16228;SDS011;8222;51.462;12.630;2023-06-10T05:23:48;9.05;;;7.72;;
16228;SDS011;8222;51.462;12.630;2023-06-10T05:26:16;10.20;;;7.07;;
16228;SDS011;8222;51.462;12.630;2023-06-10T05:28:44;13.10;;;7.27;;
16228;SDS011;8222;51.462;12.630;2023-06-10T05:31:12;14.80;;;7.37;;
16228;SDS011;8222;51.462;12.630;2023-06-10T05:33:38;8.37;;;7.57;;
16228;SDS011;8222;51.462;12.630;2023-06-10T05:36:04;9.97;;;7.57;;
16228;SDS011;8222;51.462;12.630;2023-06-10T05:38:30;12.23;;;8.35;;
16228;SDS011;8222;51.462;12.630;2023-06-10T05:40:58;9.38;;;8.32;;
16228;SDS011;8222;51.462;12.630;2023-06-10T05:43:26;8.37;;;7.47;;
16228;SDS011;8222;51.462;12.630;2023-06-10T05:45:51;9.37;;;8.03;;
16228;SDS011;8222;51.462;12.630;2023-06-10T05:48:17;8.73;;;7.93;;
16228;SDS011;8222;51.462;12.630;2023-06-10T05:50:44;10.32;;;8.15;;
16228;SDS011;8222;51.462;12.630;2023-06-10T05:53:15;9.15;;;8.20;;
16228;SDS011;8222;51.462;12.630;2023-06-10T05:55:44;8.70;;;7.63;;
16228;SDS011;8222;51.462;12.630;2023-06-10T05:58:11;10.03;;;7.47;;
16228;SDS011;8222;51.462;12.630;2023-06-10T06:00:40;8.40;;;7.70;;
16228;SDS011;8222;51.462;12.630;2023-06-10T06:03:09;7.60;;;7.00;;
16228;SDS011;8222;51.462;12.630;2023-06-10T06:05:35;8.93;;;7.90;;
16228;SDS011;8222;51.462;12.630;2023-06-10T06:08:03;8.57;;;7.77;;
16228;SDS011;8222;51.462;12.630;2023-06-10T06:10:32;10.07;;;7.30;;
16228;SDS011;8222;51.462;12.630;2023-06-10T06:12:58;9.03;;;8.13;;
16228;SDS011;8222;51.462;12.630;2023-06-10T06:15:23;8.47;;;7.50;;
16228;SDS011;8222;51.462;12.630;2023-06-10T06:17:49;10.07;;;9.20;;
16228;SDS011;8222;51.462;12.630;2023-06-10T06:20:17;8.33;;;7.23;;
16228;SDS011;8222;51.462;12.630;2023-06-10T06:22:46;9.63;;;8.63;;
16228;SDS011;8222;51.462;12.630;2023-06-10T06:25:12;9.20;;;8.30;;
16228;SDS011;8222;51.462;12.630;2023-06-10T06:27:38;8.47;;;7.67;;
16228;SDS011;8222;51.462;12.630;2023-06-10T06:30:07;8.20;;;7.23;;
16228;SDS011;8222;51.462;12.630;2023-06-10T06:32:33;9.90;;;8.73;;
16228;SDS011;8222;51.462;12.630;2023-06-10T06:35:01;8.73;;;8.03;;
16228;SDS011;8222;51.462;12.630;2023-06-10T06:37:30;9.20;;;8.30;;
16228;SDS011;8222;51.462;12.630;2023-06-10T06:40:01;10.10;;;9.20;;
16228;SDS011;8222;51.462;12.630;2023-06-10T06:42:30;9.60;;;8.70;;
16228;SDS011;8222;51.462;12.630;2023-06-10T06:44:56;8.13;;;7.37;;
16228;SDS011;8222;51.462;12.630;2023-06-10T06:47:21;8.57;;;7.73;;
16228;SDS011;8222;51.462;12.630;2023-06-10T06:49:48;9.03;;;8.27;;
16228;SDS011;8222;51.462;12.630;2023-06-10T06:52:14;10.13;;;9.20;;
16228;SDS011;8222;51.462;12.630;2023-06-10T06:54:42;9.47;;;8.57;;
16228;SDS011;8222;51.462;12.630;2023-06-10T06:57:08;8.93;;;8.13;;
16228;SDS011;8222;51.462;12.630;2023-06-10T06:59:33;8.27;;;7.53;;
16228;SDS011;8222;51.462;12.630;2023-06-10T07:01:59;9.07;;;8.23;;
16228;SDS011;8222;51.462;12.630;2023-06-10T07:04:25;9.55;;;8.65;;
16228;SDS011;8222;51.462;12.630;2023-06-10T07:06:51;9.13;;;8.23;;
16228;SDS011;8222;51.462;12.630;2023-06-10T07:09:16;8.73;;;8.00;;
16228;SDS011;8222;51.462;12.630;2023-06-10T07:11:42;9.40;;;8.53;;
16228;SDS011;8222;51.462;12.630;2023-06-10T07:14:08;11.53;;;8.50;;
16228;SDS011;8222;51.462;12.630;2023-06-10T07:16:35;10.20;;;9.20;;
16228;SDS011;8222;51.462;12.630;2023-06-10T07:19:01;9.50;;;8.65;;
16228;SDS011;8222;51.462;12.630;2023-06-10T07:21:27;10.73;;;9.25;;
16228;SDS011;8222;51.462;12.630;2023-06-10T07:23:54;9.30;;;8.43;;
16228;SDS011;8222;51.462;12.630;2023-06-10T07:26:21;12.10;;;9.50;;
16228;SDS011;8222;51.462;12.630;2023-06-10T07:29:18;10.52;;;9.30;;
16228;SDS011;8222;51.462;12.630;2023-06-10T07:31:44;9.98;;;8.98;;
16228;SDS011;8222;51.462;12.630;2023-06-10T07:34:10;10.63;;;9.63;;
16228;SDS011;8222;51.462;12.630;2023-06-10T07:36:38;9.63;;;8.63;;
16228;SDS011;8222;51.462;12.630;2023-06-10T07:39:04;8.47;;;7.67;;
16228;SDS011;8222;51.462;12.630;2023-06-10T07:41:33;8.47;;;7.73;;
16228;SDS011;8222;51.462;12.630;2023-06-10T07:44:03;10.00;;;9.10;;
16228;SDS011;8222;51.462;12.630;2023-06-10T07:46:29;8.97;;;8.07;;
16228;SDS011;8222;51.462;12.630;2023-06-10T07:48:54;9.70;;;8.50;;
16228;SDS011;8222;51.462;12.630;2023-06-10T07:51:23;9.93;;;8.93;;
16228;SDS011;8222;51.462;12.630;2023-06-10T07:53:48;9.23;;;8.07;;
16228;SDS011;8222;51.462;12.630;2023-06-10T07:56:14;8.53;;;7.73;;
16228;SDS011;8222;51.462;12.630;2023-06-10T07:58:40;9.60;;;8.67;;
16228;SDS011;8222;51.462;12.630;2023-06-10T08:01:05;9.73;;;8.20;;
16228;SDS011;8222;51.462;12.630;2023-06-10T08:03:32;10.57;;;8.73;;
16228;SDS011;8222;51.462;12.630;2023-06-10T08:05:58;9.93;;;8.60;;
16228;SDS011;8222;51.462;12.630;2023-06-10T08:08:23;10.13;;;9.30;;
16228;SDS011;8222;51.462;12.630;2023-06-10T08:10:51;10.15;;;9.18;;
16228;SDS011;8222;51.462;12.630;2023-06-10T08:13:19;9.77;;;8.83;;
16228;SDS011;8222;51.462;12.630;2023-06-10T08:15:47;9.57;;;8.77;;
16228;SDS011;8222;51.462;12.630;2023-06-10T08:18:15;9.20;;;8.30;;
16228;SDS011;8222;51.462;12.630;2023-06-10T08:20:43;10.10;;;9.03;;
16228;SDS011;8222;51.462;12.630;2023-06-10T08:23:09;9.47;;;8.67;;
16228;SDS011;8222;51.462;12.630;2023-06-10T08:25:35;10.73;;;9.00;;
16228;SDS011;8222;51.462;12.630;2023-06-10T08:28:00;11.90;;;9.37;;
16228;SDS011;8222;51.462;12.630;2023-06-10T08:30:26;10.30;;;9.30;;
16228;SDS011;8222;51.462;12.630;2023-06-10T08:32:52;10.83;;;9.87;;
16228;SDS011;8222;51.462;12.630;2023-06-10T08:35:17;10.47;;;9.47;;
16228;SDS011;8222;51.462;12.630;2023-06-10T08:37:43;9.70;;;8.70;;
16228;SDS011;8222;51.462;12.630;2023-06-10T08:40:08;9.70;;;8.87;;
16228;SDS011;8222;51.462;12.630;2023-06-10T08:42:43;9.75;;;8.95;;
16228;SDS011;8222;51.462;12.630;2023-06-10T08:45:17;11.37;;;8.90;;
16228;SDS011;8222;51.462;12.630;2023-06-10T08:47:44;9.43;;;8.53;;
16228;SDS011;8222;51.462;12.630;2023-06-10T08:50:15;10.07;;;9.00;;
16228;SDS011;8222;51.462;12.630;2023-06-10T08:52:43;9.50;;;8.70;;
16228;SDS011;8222;51.462;12.630;2023-06-10T08:55:20;9.57;;;8.67;;
16228;SDS011;8222;51.462;12.630;2023-06-10T08:57:52;9.00;;;8.10;;
16228;SDS011;8222;51.462;12.630;2023-06-10T09:00:19;10.20;;;9.23;;
16228;SDS011;8222;51.462;12.630;2023-06-10T09:02:52;9.73;;;8.93;;
16228;SDS011;8222;51.462;12.630;2023-06-10T09:05:20;10.40;;;9.20;;
16228;SDS011;8222;51.462;12.630;2023-06-10T09:07:47;10.13;;;9.33;;
16228;SDS011;8222;51.462;12.630;2023-06-10T09:10:15;9.77;;;8.95;;
16228;SDS011;8222;51.462;12.630;2023-06-10T09:12:41;10.45;;;9.43;;
16228;SDS011;8222;51.462;12.630;2023-06-10T09:15:07;10.90;;;9.98;;
16228;SDS011;8222;51.462;12.630;2023-06-10T09:17:37;9.97;;;9.17;;
16228;SDS011;8222;51.462;12.630;2023-06-10T09:20:08;8.23;;;7.53;;
16228;SDS011;8222;51.462;12.630;2023-06-10T09:22:41;9.40;;;8.50;;
16228;SDS011;8222;51.462;12.630;2023-06-10T09:25:08;8.77;;;8.17;;
16228;SDS011;8222;51.462;12.630;2023-06-10T09:27:50;8.67;;;7.97;;
16228;SDS011;8222;51.462;12.630;2023-06-10T09:30:40;9.17;;;8.47;;
16228;SDS011;8222;51.462;12.630;2023-06-10T09:33:09;10.07;;;9.17;;
16228;SDS011;8222;51.462;12.630;2023-06-10T09:35:49;10.03;;;9.03;;
16228;SDS011;8222;51.462;12.630;2023-06-10T09:38:19;9.73;;;9.03;;
16228;SDS011;8222;51.462;12.630;2023-06-10T09:40:56;10.00;;;9.10;;
16228;SDS011;8222;51.462;12.630;2023-06-10T09:43:40;10.68;;;9.75;;
16228;SDS011;8222;51.462;12.630;2023-06-10T09:46:14;10.55;;;9.57;;
16228;SDS011;8222;51.462;12.630;2023-06-10T09:51:54;9.30;;;8.70;;
16228;SDS011;8222;51.462;12.630;2023-06-10T09:54:23;9.90;;;9.00;;
16228;SDS011;8222;51.462;12.630;2023-06-10T09:57:10;20.10;;;9.03;;
16228;SDS011;8222;51.462;12.630;2023-06-10T10:00:13;10.33;;;9.43;;
16228;SDS011;8222;51.462;12.630;2023-06-10T10:03:03;10.70;;;9.70;;
16228;SDS011;8222;51.462;12.630;2023-06-10T10:05:57;14.17;;;9.50;;
16228;SDS011;8222;51.462;12.630;2023-06-10T10:11:40;9.80;;;8.80;;
16228;SDS011;8222;51.462;12.630;2023-06-10T10:14:33;9.88;;;8.98;;
16228;SDS011;8222;51.462;12.630;2023-06-10T10:21:01;9.70;;;8.90;;
16228;SDS011;8222;51.462;12.630;2023-06-10T10:27:07;10.90;;;9.95;;
16228;SDS011;8222;51.462;12.630;2023-06-10T10:30:06;9.13;;;8.37;;
16228;SDS011;8222;51.462;12.630;2023-06-10T10:33:12;10.47;;;9.47;;
16228;SDS011;8222;51.462;12.630;2023-06-10T10:36:10;10.55;;;9.68;;
16228;SDS011;8222;51.462;12.630;2023-06-10T10:39:34;10.23;;;9.23;;
16228;SDS011;8222;51.462;12.630;2023-06-10T10:42:30;9.57;;;8.77;;
16228;SDS011;8222;51.462;12.630;2023-06-10T10:49:05;9.93;;;9.02;;
16228;SDS011;8222;51.462;12.630;2023-06-10T10:54:45;8.40;;;7.73;;
16228;SDS011;8222;51.462;12.630;2023-06-10T11:01:57;9.30;;;8.50;;
16228;SDS011;8222;51.462;12.630;2023-06-10T11:04:50;9.33;;;8.43;;
16228;SDS011;8222;51.462;12.630;2023-06-10T11:07:51;9.03;;;8.33;;
16228;SDS011;8222;51.462;12.630;2023-06-10T11:17:22;7.80;;;7.20;;
16228;SDS011;8222;51.462;12.630;2023-06-10T11:27:54;7.57;;;7.07;;
16228;SDS011;8222;51.462;12.630;2023-06-10T11:31:49;9.02;;;8.23;;
16228;SDS011;8222;51.462;12.630;2023-06-10T11:38:24;8.23;;;7.63;;
16228;SDS011;8222;51.462;12.630;2023-06-10T11:41:13;7.75;;;7.20;;
16228;SDS011;8222;51.462;12.630;2023-06-10T11:48:03;7.65;;;6.95;;
16228;SDS011;8222;51.462;12.630;2023-06-10T11:57:47;8.40;;;7.70;;
16228;SDS011;8222;51.462;12.630;2023-06-10T12:08:13;4.63;;;4.27;;
16228;SDS011;8222;51.462;12.630;2023-06-10T12:11:03;4.45;;;4.05;;
16228;SDS011;8222;51.462;12.630;2023-06-10T12:14:07;4.32;;;4.03;;
16228;SDS011;8222;51.462;12.630;2023-06-10T12:17:00;4.70;;;4.40;;
16228;SDS011;8222;51.462;12.630;2023-06-10T12:23:24;6.03;;;5.50;;
16228;SDS011;8222;51.462;12.630;2023-06-10T12:26:14;5.63;;;5.13;;
16228;SDS011;8222;51.462;12.630;2023-06-10T12:29:21;6.47;;;6.07;;
16228;SDS011;8222;51.462;12.630;2023-06-10T12:32:05;7.63;;;7.03;;
16228;SDS011;8222;51.462;12.630;2023-06-10T12:35:09;8.10;;;6.67;;
16228;SDS011;8222;51.462;12.630;2023-06-10T12:38:05;7.20;;;6.53;;
16228;SDS011;8222;51.462;12.630;2023-06-10T12:41:08;6.70;;;6.30;;
16228;SDS011;8222;51.462;12.630;2023-06-10T12:43:43;7.50;;;6.90;;
16228;SDS011;8222;51.462;12.630;2023-06-10T12:46:35;7.27;;;6.57;;
16228;SDS011;8222;51.462;12.630;2023-06-10T12:49:33;8.07;;;7.47;;
16228;SDS011;8222;51.462;12.630;2023-06-10T12:52:35;8.00;;;6.80;;
16228;SDS011;8222;51.462;12.630;2023-06-10T12:55:51;7.88;;;7.15;;
16228;SDS011;8222;51.462;12.630;2023-06-10T12:58:30;8.40;;;7.70;;
16228;SDS011;8222;51.462;12.630;2023-06-10T13:01:43;7.00;;;6.50;;
16228;SDS011;8222;51.462;12.630;2023-06-10T13:04:57;7.35;;;6.75;;
16228;SDS011;8222;51.462;12.630;2023-06-10T13:08:48;7.57;;;6.97;;
16228;SDS011;8222;51.462;12.630;2023-06-10T13:11:45;6.73;;;6.13;;
16228;SDS011;8222;51.462;12.630;2023-06-10T13:14:42;7.95;;;6.85;;
16228;SDS011;8222;51.462;12.630;2023-06-10T13:17:24;6.10;;;5.63;;
16228;SDS011;8222;51.462;12.630;2023-06-10T13:19:52;6.03;;;5.53;;
16228;SDS011;8222;51.462;12.630;2023-06-10T13:22:23;5.87;;;5.47;;
16228;SDS011;8222;51.462;12.630;2023-06-10T13:25:15;6.33;;;5.90;;
16228;SDS011;8222;51.462;12.630;2023-06-10T13:27:43;5.50;;;5.07;;
16228;SDS011;8222;51.462;12.630;2023-06-10T13:30:16;5.20;;;4.90;;
16228;SDS011;8222;51.462;12.630;2023-06-10T13:32:45;5.47;;;5.00;;
16228;SDS011;8222;51.462;12.630;2023-06-10T13:35:10;5.18;;;4.78;;
16228;SDS011;8222;51.462;12.630;2023-06-10T13:37:39;5.03;;;4.63;;
16228;SDS011;8222;51.462;12.630;2023-06-10T13:40:10;6.97;;;4.90;;
16228;SDS011;8222;51.462;12.630;2023-06-10T13:42:41;4.93;;;4.53;;
16228;SDS011;8222;51.462;12.630;2023-06-10T13:45:07;4.57;;;4.27;;
16228;SDS011;8222;51.462;12.630;2023-06-10T13:47:35;4.73;;;4.43;;
16228;SDS011;8222;51.462;12.630;2023-06-10T13:50:09;4.63;;;4.23;;
16228;SDS011;8222;51.462;12.630;2023-06-10T13:52:42;4.33;;;4.13;;
16228;SDS011;8222;51.462;12.630;2023-06-10T13:55:13;5.33;;;4.90;;
16228;SDS011;8222;51.462;12.630;2023-06-10T13:57:45;4.85;;;4.55;;
16228;SDS011;8222;51.462;12.630;2023-06-10T14:00:13;4.60;;;4.20;;
16228;SDS011;8222;51.462;12.630;2023-06-10T14:02:45;6.30;;;4.53;;
16228;SDS011;8222;51.462;12.630;2023-06-10T14:05:15;5.57;;;5.10;;
16228;SDS011;8222;51.462;12.630;2023-06-10T14:07:50;5.07;;;4.67;;
16228;SDS011;8222;51.462;12.630;2023-06-10T14:10:16;4.67;;;4.33;;
16228;SDS011;8222;51.462;12.630;2023-06-10T14:12:53;5.07;;;4.53;;
16228;SDS011;8222;51.462;12.630;2023-06-10T14:15:24;5.10;;;4.63;;
16228;SDS011;8222;51.462;12.630;2023-06-10T14:17:58;5.30;;;4.90;;
16228;SDS011;8222;51.462;12.630;2023-06-10T14:20:29;4.50;;;4.20;;
16228;SDS011;8222;51.462;12.630;2023-06-10T14:22:58;4.60;;;4.30;;
16228;SDS011;8222;51.462;12.630;2023-06-10T14:25:27;4.00;;;3.80;;
16228;SDS011;8222;51.462;12.630;2023-06-10T14:27:56;4.20;;;3.90;;
16228;SDS011;8222;51.462;12.630;2023-06-10T14:30:29;4.10;;;3.80;;
16228;SDS011;8222;51.462;12.630;2023-06-10T14:33:03;4.77;;;4.37;;
16228;SDS011;8222;51.462;12.630;2023-06-10T14:35:39;5.50;;;5.10;;
16228;SDS011;8222;51.462;12.630;2023-06-10T14:38:19;5.77;;;5.20;;
16228;SDS011;8222;51.462;12.630;2023-06-10T14:41:06;5.30;;;4.90;;
16228;SDS011;8222;51.462;12.630;2023-06-10T14:44:02;5.60;;;5.10;;
16228;SDS011;8222;51.462;12.630;2023-06-10T14:46:35;5.27;;;4.80;;
16228;SDS011;8222;51.462;12.630;2023-06-10T14:49:18;4.90;;;4.60;;
16228;SDS011;8222;51.462;12.630;2023-06-10T14:51:55;5.00;;;4.70;;
16228;SDS011;8222;51.462;12.630;2023-06-10T14:54:48;5.72;;;5.13;;
16228;SDS011;8222;51.462;12.630;2023-06-10T14:57:25;5.78;;;5.38;;
16228;SDS011;8222;51.462;12.630;2023-06-10T15:00:02;6.03;;;5.63;;
16228;SDS011;8222;51.462;12.630;2023-06-10T15:03:07;5.83;;;5.10;;
16228;SDS011;8222;51.462;12.630;2023-06-10T15:05:50;6.72;;;6.13;;
16228;SDS011;8222;51.462;12.630;2023-06-10T15:09:02;5.80;;;5.40;;
16228;SDS011;8222;51.462;12.630;2023-06-10T15:12:11;6.40;;;5.93;;
16228;SDS011;8222;51.462;12.630;2023-06-10T15:15:25;7.70;;;7.00;;
16228;SDS011;8222;51.462;12.630;2023-06-10T15:18:26;8.43;;;7.80;;
16228;SDS011;8222;51.462;12.630;2023-06-10T15:21:56;9.15;;;8.45;;
16228;SDS011;8222;51.462;12.630;2023-06-10T15:31:46;7.18;;;6.60;;
16228;SDS011;8222;51.462;12.630;2023-06-10T15:38:34;8.30;;;7.60;;
16228;SDS011;8222;51.462;12.630;2023-06-10T15:45:18;7.65;;;7.05;;
16228;SDS011;8222;51.462;12.630;2023-06-10T15:48:51;6.95;;;6.35;;
16228;SDS011;8222;51.462;12.630;2023-06-10T15:52:20;7.72;;;7.22;;
16228;SDS011;8222;51.462;12.630;2023-06-10T16:05:44;7.43;;;6.93;;
16228;SDS011;8222;51.462;12.630;2023-06-10T16:08:54;7.43;;;6.83;;
16228;SDS011;8222;51.462;12.630;2023-06-10T16:11:32;7.43;;;6.83;;
16228;SDS011;8222;51.462;12.630;2023-06-10T16:14:03;8.00;;;7.20;;
16228;SDS011;8222;51.462;12.630;2023-06-10T16:20:12;7.80;;;7.20;;
16228;SDS011;8222;51.462;12.630;2023-06-10T16:22:55;8.32;;;7.63;;
16228;SDS011;8222;51.462;12.630;2023-06-10T16:25:42;9.63;;;8.68;;
16228;SDS011;8222;51.462;12.630;2023-06-10T16:35:08;8.30;;;7.60;;
16228;SDS011;8222;51.462;12.630;2023-06-10T16:41:02;7.47;;;6.97;;
16228;SDS011;8222;51.462;12.630;2023-06-10T16:43:38;8.48;;;7.78;;
16228;SDS011;8222;51.462;12.630;2023-06-10T16:46:21;7.87;;;7.20;;
16228;SDS011;8222;51.462;12.630;2023-06-10T16:56:15;8.10;;;7.40;;
16228;SDS011;8222;51.462;12.630;2023-06-10T16:58:53;8.63;;;8.03;;
16228;SDS011;8222;51.462;12.630;2023-06-10T17:01:27;8.00;;;7.40;;
16228;SDS011;8222;51.462;12.630;2023-06-10T17:03:54;8.75;;;8.13;;
16228;SDS011;8222;51.462;12.630;2023-06-10T17:06:32;8.67;;;7.87;;
16228;SDS011;8222;51.462;12.630;2023-06-10T17:09:18;8.63;;;7.95;;
16228;SDS011;8222;51.462;12.630;2023-06-10T17:11:46;8.68;;;7.93;;
16228;SDS011;8222;51.462;12.630;2023-06-10T17:14:33;8.33;;;7.73;;
16228;SDS011;8222;51.462;12.630;2023-06-10T17:17:36;8.50;;;7.70;;
16228;SDS011;8222;51.462;12.630;2023-06-10T17:20:22;8.30;;;7.55;;
16228;SDS011;8222;51.462;12.630;2023-06-10T17:23:07;8.20;;;7.60;;
16228;SDS011;8222;51.462;12.630;2023-06-10T17:25:43;9.80;;;8.95;;
16228;SDS011;8222;51.462;12.630;2023-06-10T17:28:18;8.82;;;8.07;;
16228;SDS011;8222;51.462;12.630;2023-06-10T17:31:07;8.53;;;7.93;;